Leite Lopes Airport

SBRP · São Paulo, 巴西

罗盘
风向 的 风向 280° Leite Lopes Airport 18/36
风: 5 kt, 2 beaufort

2 kt

4 kt
改变
0 ft 1.000 2.000 3.000 4.000 5.000
CAVOK
METAR SBRP 281300Z 28005KT CAVOK 31/19 Q1015

METAR Leite Lopes Airport - SBRP/RAO

Leite Lopes Airport是,巴西中的中型机场。 该机场位于纬度-21,13417和经度-47,77410。 该机场有一条跑道: 18/36. 本场的ICAO机场代码为SBRP。 该机场的IATA代码为RAO。 机场在Brasilia FIR中。

该航空气象观测是针对Leite Lopes Airport在2024年2月28日 10:00, 当地时间进行的。

机场观察

风向为280°,速度为5 kt。

天气为CAVOK。这意味着在5.000 ft或MSA(最低安全高度)以下(以较高者为准)以下没有云。这也意味着没有观测到积雨云或高耸的积云,可见度为10 km 或者更多或更高。此外,不会有雾,降雨或其他重要天气。

温度和风寒是31 °C。 热指数为33。 露点为19 °C,相对湿度为49%。 海平面上的气压为1015 hPa (QNH)。

白天

今天,太阳从06:07升起,在18:39降落。 这适用于Leite Lopes Airport,世界夏令时可能有所不同。 当地时间与世界标准时间之间的时差为-3 小时。 当前,没有夏令时有效。

公司介绍

我们没有关于这个机场的公司信息。

体会

到Vliegles.nl去找飞行课程,跳伞和其他飞行体验。 浏览页面,了解Leite Lopes Airport附近所有可用的活动。 你也可以使用搜索功能来寻找你所在地附近的特定飞行课程、跳伞或其他飞行体验。

跑道

Id 标题 侧风 逆风 侧风 %
18/36 163°-343° 4 kt 2 kt 89 %

逆风成分最大的方向会被突出显示,并用于横风计算。 这并不一定意味着这个方向在使用。

温度 & 天气

温度 31 °C
露点 19 °C
相对湿度 49%
热度指数 33 °C
Kp-index 0 (0-9)

白天

日出
06:07
中午
12:23
日落
18:39 (8:22)

小工具

你想在你的网站上有一个关于Leite Lopes Airport的当前航空天气(METAR)的小部件吗?

显示HTML代码
?>